Time;durP1;ratioP1;P1;durP2;ratioP2;P2;SDS_P1;SDS_P2;PMS_P1;PMS_P2;Temp;Humidity;BMP_temperature;BMP_pressure;BME280_temperature;BME280_humidity;BME280_pressure;Samples;Min_cycle;Max_cycle;Signal;HPM_P1;HPM_P2
2021/12/19 00:01:01;;;;;;;0.60;0.60;;;;;;;20.84;41.64;97840.72;10543818;28;20159;-53
2021/12/19 00:11:59;;;;;;;0.57;0.57;;;;;;;20.81;41.76;97835.91;10529964;28;20056;-53
2021/12/19 00:17:19;;;;;;;0.60;0.60;;;;;;;20.80;41.66;97842.44;10543446;28;20047;-53
2021/12/19 00:22:38;;;;;;;0.45;0.45;;;;;;;20.78;41.70;97822.97;10529941;28;20059;-53
2021/12/19 00:27:58;;;;;;;0.60;0.60;;;;;;;20.77;41.71;97813.25;10539678;28;20063;-53
2021/12/19 00:33:17;;;;;;;0.60;0.60;;;;;;;20.77;41.72;97821.38;10537709;28;20052;-54
2021/12/19 00:38:37;;;;;;;0.70;0.70;;;;;;;20.73;41.81;97810.34;10537276;28;20637;-53
2021/12/19 00:44:08;;;;;;;0.60;0.60;;;;;;;20.74;41.78;97814.69;10550877;28;20552;-53
2021/12/19 00:49:27;;;;;;;0.50;0.50;;;;;;;20.71;41.87;97807.94;10536849;28;20081;-53
2021/12/19 00:54:47;;;;;;;0.60;0.60;;;;;;;20.71;41.76;97802.53;10536487;28;20072;-53
2021/12/19 01:00:09;;;;;;;0.50;0.50;;;;;;;20.68;41.83;97803.16;10536850;28;20044;-53
2021/12/19 01:05:32;;;;;;;0.50;0.50;;;;;;;20.66;41.84;97799.97;10535745;28;20052;-53
2021/12/19 01:10:52;;;;;;;0.52;0.52;;;;;;;20.65;41.86;97795.63;10536317;28;20060;-53
2021/12/19 01:16:13;;;;;;;0.60;0.60;;;;;;;20.64;41.88;97785.09;10549674;28;20044;-54
2021/12/19 01:21:33;;;;;;;0.80;0.60;;;;;;;20.62;41.96;97776.50;10535739;28;20071;-51
2021/12/19 01:26:52;;;;;;;0.57;0.57;;;;;;;20.61;41.97;97778.41;10535123;28;20068;-54
2021/12/19 01:32:12;;;;;;;0.50;0.50;;;;;;;20.57;41.99;97771.97;10535446;28;20109;-51
2021/12/19 01:37:32;;;;;;;0.50;0.50;;;;;;;20.57;41.99;97769.28;10534128;28;20112;-53
2021/12/19 01:42:57;;;;;;;0.65;0.60;;;;;;;20.57;42.06;97754.94;10535213;28;20074;-52
2021/12/19 01:48:16;;;;;;;0.50;0.50;;;;;;;20.54;42.08;97737.41;10548434;28;20511;-53
2021/12/19 01:53:35;;;;;;;0.45;0.45;;;;;;;20.52;42.08;97729.59;10534601;28;20074;-53
2021/12/19 01:58:55;;;;;;;0.60;0.60;;;;;;;20.51;42.05;97724.50;10534346;28;20044;-53
2021/12/19 02:04:16;;;;;;;0.40;0.40;;;;;;;20.49;42.07;97711.25;10534098;28;20586;-54
2021/12/19 02:09:36;;;;;;;0.50;0.50;;;;;;;20.49;42.04;97713.16;10533947;28;20052;-53
2021/12/19 02:14:56;;;;;;;0.50;0.50;;;;;;;20.46;42.05;97719.97;10533637;28;20304;-54
2021/12/19 02:20:16;;;;;;;0.50;0.50;;;;;;;20.45;42.00;97709.50;10533466;28;20467;-53
2021/12/19 02:25:35;;;;;;;0.40;0.40;;;;;;;20.42;42.09;97710.09;10532999;28;20066;-53
2021/12/19 02:30:55;;;;;;;0.40;0.40;;;;;;;20.41;42.12;97701.19;10533060;28;20044;-51
2021/12/19 02:52:52;;;;;;;0.43;0.43;;;;;;;20.35;42.28;97678.84;10532564;28;20075;-54
2021/12/19 02:58:12;;;;;;;0.50;0.50;;;;;;;20.33;42.29;97664.81;10532053;28;20048;-53
2021/12/19 03:03:31;;;;;;;0.50;0.50;;;;;;;20.33;42.28;97685.69;10531910;28;20612;-53
2021/12/19 03:08:52;;;;;;;0.50;0.50;;;;;;;20.31;42.36;97672.44;10531679;28;20484;-53
2021/12/19 03:19:50;;;;;;;0.55;0.55;;;;;;;20.30;42.24;97649.19;10531179;28;20048;-53
2021/12/19 03:25:10;;;;;;;0.40;0.40;;;;;;;20.28;42.23;97640.59;10531032;28;20435;-54
2021/12/19 03:30:30;;;;;;;0.50;0.50;;;;;;;20.27;42.28;97621.97;10544604;28;20558;-53
2021/12/19 03:35:50;;;;;;;0.40;0.40;;;;;;;20.25;42.21;97627.69;10530320;28;20061;-53
2021/12/19 03:41:18;;;;;;;0.40;0.40;;;;;;;20.21;42.16;97607.78;10530945;28;20047;-53
2021/12/19 03:46:38;;;;;;;0.40;0.40;;;;;;;20.21;42.29;97601.53;10530565;28;20051;-53
2021/12/19 03:51:57;;;;;;;0.40;0.40;;;;;;;20.19;42.24;97598.34;10530702;28;20052;-54
2021/12/19 03:57:17;;;;;;;0.30;0.30;;;;;;;20.17;42.42;97598.69;10530554;28;20547;-53
2021/12/19 04:02:37;;;;;;;0.50;0.50;;;;;;;20.14;42.51;97583.84;10538694;28;20391;-52
2021/12/19 04:07:57;;;;;;;1.77;0.47;;;;;;;20.13;42.40;97576.03;10538948;28;20063;-53
2021/12/19 04:13:18;;;;;;;0.43;0.43;;;;;;;20.11;42.41;97575.53;10538399;28;20055;-54
2021/12/19 04:18:37;;;;;;;0.50;0.50;;;;;;;20.09;42.45;97556.94;10538047;28;20048;-50
2021/12/19 04:23:57;;;;;;;0.40;0.40;;;;;;;20.08;42.45;97554.53;10538623;28;20101;-53
2021/12/19 04:29:16;;;;;;;0.50;0.50;;;;;;;20.08;42.49;97543.72;10537013;28;20059;-53
2021/12/19 04:34:35;;;;;;;0.50;0.50;;;;;;;20.05;42.46;97536.22;10538111;28;20085;-53
2021/12/19 04:40:03;;;;;;;0.43;0.43;;;;;;;20.05;42.50;97519.97;10537509;28;20507;-53
2021/12/19 05:02:15;;;;;;;0.40;0.40;;;;;;;19.98;42.50;97503.41;10504064;28;20094;-53
2021/12/19 05:18:54;;;;;;;0.40;0.40;;;;;;;19.93;42.59;97504.31;10535115;28;20075;-53
2021/12/19 05:29:38;;;;;;;0.40;0.40;;;;;;;19.90;42.50;97486.03;10549133;28;20539;-53
2021/12/19 05:34:58;;;;;;;0.30;0.30;;;;;;;19.88;42.68;97477.44;10535261;28;20083;-53
2021/12/19 05:45:56;;;;;;;0.35;0.35;;;;;;;19.86;42.70;97458.81;10534878;28;20052;-54
2021/12/19 05:51:15;;;;;;;0.30;0.30;;;;;;;19.83;42.69;97437.78;10534742;28;20044;-53
2021/12/19 05:56:35;;;;;;;0.50;0.50;;;;;;;19.81;42.72;97445.41;10547805;28;20040;-53
2021/12/19 06:01:54;;;;;;;0.40;0.40;;;;;;;19.80;42.75;97438.41;10533630;28;20061;-54
2021/12/19 06:07:14;;;;;;;0.30;0.30;;;;;;;19.78;42.67;97429.00;10534824;28;20457;-53
2021/12/19 06:12:33;;;;;;;0.43;0.43;;;;;;;19.78;42.71;97424.41;10534155;28;20063;-53
2021/12/19 06:17:53;;;;;;;0.38;0.38;;;;;;;19.76;42.68;97407.72;10533908;28;20040;-53
2021/12/19 06:23:13;;;;;;;0.40;0.40;;;;;;;19.75;42.61;97408.81;10533983;28;20056;-52
2021/12/19 06:28:32;;;;;;;0.40;0.40;;;;;;;19.72;42.67;97391.31;10532943;28;20063;-52
2021/12/19 06:33:52;;;;;;;0.35;0.35;;;;;;;19.71;42.53;97389.69;10533472;28;20504;-53
2021/12/19 06:39:12;;;;;;;0.40;0.40;;;;;;;19.69;42.53;97364.84;10532922;28;20048;-53
2021/12/19 06:44:31;;;;;;;0.30;0.30;;;;;;;19.68;42.54;97357.03;10532952;28;20561;-51
2021/12/19 06:49:51;;;;;;;0.40;0.40;;;;;;;19.67;42.66;97374.38;10532369;28;20051;-53
2021/12/19 06:55:13;;;;;;;0.55;0.50;;;;;;;19.66;42.73;97381.72;10532138;28;20063;-53
2021/12/19 07:00:33;;;;;;;0.50;0.50;;;;;;;19.66;42.78;97375.47;10532318;28;20040;-53
2021/12/19 07:05:53;;;;;;;0.40;0.40;;;;;;;19.67;42.79;97390.59;10531617;28;20051;-53
2021/12/19 07:11:12;;;;;;;0.40;0.40;;;;;;;19.69;42.68;97366.75;10531717;28;20052;-54
2021/12/19 07:16:32;;;;;;;0.40;0.40;;;;;;;19.71;42.78;97361.84;10545339;28;20043;-53
2021/12/19 07:21:51;;;;;;;0.40;0.40;;;;;;;19.72;42.69;97368.88;10530984;28;20100;-52
2021/12/19 07:27:11;;;;;;;0.40;0.40;;;;;;;19.75;42.73;97373.66;10531138;28;20063;-54
2021/12/19 07:32:32;;;;;;;0.40;0.40;;;;;;;19.77;42.75;97370.66;10531093;28;20059;-53
2021/12/19 07:37:54;;;;;;;0.40;0.40;;;;;;;19.79;42.65;97382.75;10530930;28;20070;-52
2021/12/19 07:43:14;;;;;;;0.40;0.40;;;;;;;19.82;42.59;97382.13;10530461;28;20056;-53
2021/12/19 07:48:34;;;;;;;0.20;0.20;;;;;;;19.84;42.62;97388.03;10531560;28;20105;-52
2021/12/19 07:53:54;;;;;;;0.30;0.30;;;;;;;19.87;42.52;97384.69;10531130;28;20048;-53
2021/12/19 07:59:14;;;;;;;0.40;0.40;;;;;;;19.91;42.48;97387.56;10544296;28;20036;-53
2021/12/19 08:04:33;;;;;;;0.30;0.30;;;;;;;19.94;42.38;97386.94;10531120;28;20423;-53
2021/12/19 08:15:18;;;;;;;0.40;0.40;;;;;;;20.02;42.39;97388.88;10530842;28;20055;-53
2021/12/19 08:20:37;;;;;;;0.38;0.38;;;;;;;20.05;42.26;97382.88;10529984;28;20048;-53
2021/12/19 08:25:57;;;;;;;0.32;0.32;;;;;;;20.08;42.23;97381.44;10539036;28;20109;-53
2021/12/19 08:31:16;;;;;;;0.30;0.30;;;;;;;20.12;42.33;97377.78;10529730;28;20044;-54
2021/12/19 08:36:36;;;;;;;0.30;0.30;;;;;;;20.18;42.11;97385.75;10530417;28;20133;-53
2021/12/19 08:41:56;;;;;;;0.20;0.20;;;;;;;20.21;42.21;97385.09;10543731;28;20036;-53
2021/12/19 08:47:16;;;;;;;0.30;0.30;;;;;;;20.24;42.10;97382.56;10533587;28;20048;-54
2021/12/19 08:52:36;;;;;;;0.30;0.30;;;;;;;20.27;42.02;97387.38;10537380;28;20044;-53
2021/12/19 08:57:55;;;;;;;0.35;0.35;;;;;;;20.31;42.11;97380.22;10536994;28;20055;-53
2021/12/19 09:03:16;;;;;;;0.30;0.30;;;;;;;20.35;41.91;97372.28;10537007;28;20047;-53
2021/12/19 09:08:36;;;;;;;0.30;0.30;;;;;;;20.38;41.91;97363.50;10537069;28;20565;-51
2021/12/19 09:13:55;;;;;;;0.30;0.30;;;;;;;20.42;41.83;97364.47;10536077;28;20122;-54
2021/12/19 09:19:15;;;;;;;0.25;0.25;;;;;;;20.48;41.76;97365.94;10535815;28;20052;-53
2021/12/19 09:24:35;;;;;;;0.40;0.40;;;;;;;20.52;41.72;97369.59;10535923;28;20511;-53
2021/12/19 09:29:55;;;;;;;0.40;0.30;;;;;;;20.55;41.70;97363.53;10536250;28;20051;-53
2021/12/19 09:35:14;;;;;;;0.20;0.20;;;;;;;20.59;41.65;97350.19;10548502;28;20071;-52
2021/12/19 09:40:39;;;;;;;0.30;0.30;;;;;;;20.62;41.56;97356.88;10535555;28;20052;-51
2021/12/19 09:45:59;;;;;;;0.30;0.30;;;;;;;20.67;41.57;97335.09;10534723;28;20048;-53
2021/12/19 09:51:19;;;;;;;0.30;0.30;;;;;;;20.69;41.51;97336.34;10548761;28;20050;-53
2021/12/19 09:56:39;;;;;;;0.30;0.30;;;;;;;20.73;41.40;97326.47;10548170;28;20102;-54
2021/12/19 10:02:00;;;;;;;0.32;0.32;;;;;;;20.76;41.33;97322.34;10548331;28;20678;-54
2021/12/19 10:07:28;;;;;;;0.40;0.40;;;;;;;20.78;41.22;97306.56;10534686;28;20059;-53
2021/12/19 10:12:51;;;;;;;0.40;0.40;;;;;;;20.80;41.36;97298.94;10534191;28;20521;-53
2021/12/19 10:18:15;;;;;;;0.30;0.30;;;;;;;20.82;41.29;97293.19;10534175;28;20048;-53
2021/12/19 10:23:36;;;;;;;0.40;0.40;;;;;;;20.84;41.19;97301.78;10547759;28;20044;-53
2021/12/19 10:28:58;;;;;;;0.32;0.32;;;;;;;20.84;41.22;97293.66;10534440;28;20056;-53
2021/12/19 10:34:23;;;;;;;0.38;0.38;;;;;;;20.84;41.19;97274.72;10547002;28;20047;-53
2021/12/19 10:39:44;;;;;;;0.30;0.30;;;;;;;20.86;41.18;97272.47;10532730;28;20059;-53
2021/12/19 10:50:51;;;;;;;0.30;0.30;;;;;;;20.87;41.14;97249.69;10532961;28;20392;-53
2021/12/19 10:56:17;;;;;;;0.28;0.28;;;;;;;20.87;41.18;97244.28;10532683;28;20105;-53
2021/12/19 11:01:44;;;;;;;0.30;0.30;;;;;;;20.86;41.16;97231.88;10532131;28;20032;-53
2021/12/19 11:07:04;;;;;;;0.30;0.30;;;;;;;20.85;41.11;97236.47;10532261;28;20399;-53
2021/12/19 11:12:23;;;;;;;0.20;0.20;;;;;;;20.86;41.15;97215.63;10531182;28;20063;-53
2021/12/19 11:17:44;;;;;;;0.30;0.30;;;;;;;20.86;41.06;97219.13;10530896;28;20451;-54
2021/12/19 11:23:04;;;;;;;0.40;0.40;;;;;;;20.85;41.11;97203.97;10531944;28;20454;-53
2021/12/19 11:28:23;;;;;;;0.30;0.30;;;;;;;20.84;41.19;97186.16;10530939;28;20056;-52
2021/12/19 11:33:56;;;;;;;0.30;0.30;;;;;;;20.84;41.19;97196.97;10530909;28;20146;-54
2021/12/19 11:39:16;;;;;;;0.40;0.30;;;;;;;20.84;41.23;97172.59;10530613;28;20111;-54
2021/12/19 11:50:12;;;;;;;0.30;0.30;;;;;;;20.84;41.27;97163.69;10531130;28;20563;-53
2021/12/19 11:55:39;;;;;;;0.30;0.30;;;;;;;20.82;41.23;97153.19;10530239;28;20063;-53
2021/12/19 12:01:13;;;;;;;0.28;0.28;;;;;;;20.81;41.35;97148.09;10544408;28;20115;-53
2021/12/19 12:06:35;;;;;;;0.38;0.30;;;;;;;20.81;41.27;97140.75;10530736;28;20044;-53
2021/12/19 12:12:03;;;;;;;0.20;0.20;;;;;;;20.80;41.34;97136.47;10538537;28;20043;-50
2021/12/19 12:17:32;;;;;;;0.30;0.30;;;;;;;20.80;41.33;97124.84;10530141;28;20089;-53
2021/12/19 12:22:54;;;;;;;0.30;0.30;;;;;;;20.79;41.37;97123.25;10537299;28;20102;-53
2021/12/19 12:28:17;;;;;;;0.30;0.30;;;;;;;20.78;41.29;97116.22;10537949;28;20411;-53
2021/12/19 12:33:40;;;;;;;0.40;0.40;;;;;;;20.76;41.35;97111.16;10538280;28;20052;-53
2021/12/19 12:39:04;;;;;;;0.40;0.40;;;;;;;20.74;41.40;97102.56;10538104;28;20394;-53
2021/12/19 12:44:24;;;;;;;0.30;0.30;;;;;;;20.73;41.40;97100.97;10537280;28;20055;-52
2021/12/19 12:49:44;;;;;;;0.30;0.30;;;;;;;20.74;41.49;97089.81;10537640;28;20527;-53
2021/12/19 12:55:04;;;;;;;0.30;0.30;;;;;;;20.73;41.46;97079.31;10537550;28;20074;-52
2021/12/19 13:00:26;;;;;;;0.20;0.20;;;;;;;20.70;41.35;97069.94;10537067;28;20105;-54
2021/12/19 13:05:48;;;;;;;0.32;0.32;;;;;;;20.70;41.40;97061.03;10536979;28;20063;-53
2021/12/19 13:11:08;;;;;;;0.30;0.30;;;;;;;20.67;41.49;97057.03;10536508;28;20059;-53
2021/12/19 13:16:27;;;;;;;0.30;0.30;;;;;;;20.67;41.45;97051.63;10536999;28;20414;-53
2021/12/19 13:21:56;;;;;;;0.30;0.30;;;;;;;20.66;41.46;97060.88;10536097;28;20052;-53
2021/12/19 13:27:19;;;;;;;0.28;0.28;;;;;;;20.63;41.51;97050.69;10535463;28;20052;-53
2021/12/19 13:32:53;;;;;;;0.40;0.40;;;;;;;20.62;41.55;97054.53;10548450;28;20039;-53
2021/12/19 13:38:16;;;;;;;0.43;0.40;;;;;;;20.62;41.54;97061.81;10535633;28;20646;-50
2021/12/19 13:43:37;;;;;;;0.50;0.30;;;;;;;20.60;41.64;97056.75;10535431;28;20056;-51
2021/12/19 13:48:56;;;;;;;0.30;0.30;;;;;;;20.59;41.45;97048.94;10548258;28;20040;-53
2021/12/19 13:54:27;;;;;;;0.30;0.30;;;;;;;20.58;41.52;97047.31;10548668;28;20043;-53
2021/12/19 13:59:46;;;;;;;0.40;0.40;;;;;;;20.55;41.57;97043.38;10535346;28;20056;-53
2021/12/19 14:05:32;;;;;;;0.30;0.30;;;;;;;20.54;41.58;97041.75;10548135;28;20043;-53
2021/12/19 14:11:19;;;;;;;0.35;0.35;;;;;;;20.51;41.65;97031.59;10534242;28;20052;-54
2021/12/19 14:16:44;;;;;;;0.40;0.40;;;;;;;20.50;41.66;97019.19;10547555;28;20043;-52
2021/12/19 14:22:06;;;;;;;0.30;0.30;;;;;;;20.49;41.67;97012.19;10547343;28;20066;-53
2021/12/19 14:27:35;;;;;;;0.30;0.30;;;;;;;20.47;41.59;97003.59;10533006;28;20055;-54
2021/12/19 14:32:59;;;;;;;0.40;0.40;;;;;;;20.45;41.68;97001.22;10532927;28;20044;-53
2021/12/19 14:38:21;;;;;;;0.30;0.30;;;;;;;20.44;41.71;97004.25;10532755;28;20097;-52
2021/12/19 14:43:41;;;;;;;0.30;0.30;;;;;;;20.43;41.76;96997.25;10531875;28;20048;-53
2021/12/19 14:49:10;;;;;;;0.30;0.30;;;;;;;20.42;41.67;97001.84;10532584;28;20048;-53
2021/12/19 14:54:30;;;;;;;0.40;0.40;;;;;;;20.41;41.64;96994.88;10545864;28;20066;-53
2021/12/19 14:59:49;;;;;;;0.20;0.20;;;;;;;20.41;41.73;96985.97;10531997;28;20410;-53
2021/12/19 15:05:10;;;;;;;0.40;0.40;;;;;;;20.40;41.85;96984.38;10545602;28;20036;-53
2021/12/19 15:10:30;;;;;;;0.30;0.30;;;;;;;20.39;41.63;96971.97;10531322;28;20051;-54
2021/12/19 15:15:50;;;;;;;0.30;0.30;;;;;;;20.37;41.71;96968.78;10531970;28;20383;-53
2021/12/19 15:21:09;;;;;;;0.20;0.20;;;;;;;20.35;41.79;96967.19;10545111;28;20093;-51
2021/12/19 15:26:29;;;;;;;0.40;0.40;;;;;;;20.34;41.82;96972.94;10531065;28;20537;-54
2021/12/19 15:31:50;;;;;;;0.30;0.30;;;;;;;20.33;41.89;96988.38;10531254;28;20052;-52
2021/12/19 15:37:10;;;;;;;0.30;0.30;;;;;;;20.31;41.84;96995.22;10531287;28;20407;-54
2021/12/19 15:42:29;;;;;;;0.30;0.30;;;;;;;20.30;41.90;96993.63;10531234;28;20070;-53
2021/12/19 15:47:49;;;;;;;0.30;0.30;;;;;;;20.28;41.84;96991.25;10530864;28;20116;-54
2021/12/19 15:53:09;;;;;;;0.28;0.28;;;;;;;20.27;41.80;96988.88;10531192;28;20372;-53
2021/12/19 15:58:28;;;;;;;0.40;0.40;;;;;;;20.25;41.97;96986.50;10552301;28;20039;-51
2021/12/19 16:03:48;;;;;;;0.38;0.38;;;;;;;20.23;41.96;96972.50;10539543;28;20052;-53
2021/12/19 16:09:08;;;;;;;0.43;0.43;;;;;;;20.20;41.99;96970.44;10538774;28;20044;-53
2021/12/19 16:14:28;;;;;;;0.40;0.40;;;;;;;20.21;42.12;96971.22;10538919;28;20105;-53
2021/12/19 16:19:47;;;;;;;0.38;0.38;;;;;;;20.18;42.11;96967.25;10538048;28;20056;-53
2021/12/19 16:25:09;;;;;;;10.55;1.00;;;;;;;20.19;42.11;96970.75;10549414;28;20058;-53
2021/12/19 16:30:30;;;;;;;0.50;0.50;;;;;;;20.15;42.19;96978.75;10538353;28;20047;-53
2021/12/19 16:35:49;;;;;;;0.40;0.40;;;;;;;20.14;42.14;96979.84;10551503;28;20032;-54
2021/12/19 16:41:09;;;;;;;0.30;0.30;;;;;;;20.12;42.16;96968.56;10538037;28;20044;-53
2021/12/19 16:46:28;;;;;;;0.30;0.30;;;;;;;20.10;42.15;96970.78;10537581;28;20094;-53
2021/12/19 16:51:48;;;;;;;0.50;0.50;;;;;;;20.07;42.10;96966.84;10550851;28;20376;-53
2021/12/19 16:57:09;;;;;;;0.32;0.32;;;;;;;20.07;42.21;96969.53;10537228;28;20060;-53
2021/12/19 17:02:28;;;;;;;0.40;0.40;;;;;;;20.05;42.23;96966.38;10536904;28;20048;-53
2021/12/19 17:07:48;;;;;;;7.18;0.50;;;;;;;20.05;42.29;96971.78;10535642;28;20048;-54
2021/12/19 17:13:15;;;;;;;0.40;0.40;;;;;;;20.04;42.15;96963.97;10541123;28;20131;-53
2021/12/19 17:18:35;;;;;;;0.32;0.32;;;;;;;20.03;42.29;96975.91;10536437;28;20044;-53
2021/12/19 17:23:54;;;;;;;2.72;0.40;;;;;;;20.01;42.29;96967.31;10535947;28;20499;-53
2021/12/19 17:29:18;;;;;;;0.30;0.30;;;;;;;20.00;42.31;96963.03;10535601;28;20125;-53
2021/12/19 17:34:37;;;;;;;0.30;0.30;;;;;;;19.99;42.47;96953.31;10549399;28;20044;-51
2021/12/19 17:40:03;;;;;;;0.38;0.38;;;;;;;19.96;42.36;96952.06;10535287;28;20048;-53
2021/12/19 17:45:26;;;;;;;0.70;0.50;;;;;;;19.94;42.45;96960.50;10535010;28;20048;-53
2021/12/19 17:50:47;;;;;;;0.40;0.40;;;;;;;19.93;42.43;96958.94;10548434;28;20044;-53
2021/12/19 17:56:07;;;;;;;0.30;0.30;;;;;;;19.93;42.43;96945.41;10535023;28;20521;-53
2021/12/19 18:01:27;;;;;;;1.10;0.47;;;;;;;19.92;42.36;96934.91;10533889;28;20048;-53
2021/12/19 18:06:47;;;;;;;0.30;0.30;;;;;;;19.92;42.36;96935.69;10546821;28;20036;-53
2021/12/19 18:12:09;;;;;;;0.20;0.20;;;;;;;19.94;42.46;96936.16;10541789;28;20507;-51
2021/12/19 18:17:28;;;;;;;0.40;0.40;;;;;;;19.94;42.31;96936.16;10533718;28;20052;-54
2021/12/19 18:22:50;;;;;;;0.38;0.38;;;;;;;19.97;42.28;96931.22;10533685;28;20059;-52
2021/12/19 18:28:09;;;;;;;0.32;0.32;;;;;;;19.98;42.34;96936.31;10532580;28;20056;-53
2021/12/19 18:33:30;;;;;;;0.30;0.30;;;;;;;20.00;42.23;96941.41;10533205;28;20105;-53
2021/12/19 18:38:50;;;;;;;0.43;0.43;;;;;;;20.01;42.19;96929.44;10546388;28;20124;-54
2021/12/19 18:44:16;;;;;;;0.30;0.30;;;;;;;20.03;42.11;96919.09;10532823;28;20056;-53
2021/12/19 18:49:45;;;;;;;0.30;0.30;;;;;;;20.05;42.20;96908.75;10532820;28;20121;-53
2021/12/19 19:00:48;;;;;;;0.30;0.30;;;;;;;20.09;42.03;96901.56;10531856;28;20048;-53
2021/12/19 19:11:37;;;;;;;0.40;0.40;;;;;;;20.14;42.06;96904.13;10531458;28;20044;-53
2021/12/19 19:16:58;;;;;;;0.25;0.25;;;;;;;20.17;42.00;96895.38;10531875;28;20060;-53
2021/12/19 19:22:18;;;;;;;0.32;0.32;;;;;;;20.21;41.83;96909.00;10531722;28;20135;-53
2021/12/19 19:27:38;;;;;;;0.38;0.38;;;;;;;20.24;41.90;96902.94;10530997;28;20503;-53
2021/12/19 19:32:59;;;;;;;1.08;0.40;;;;;;;20.26;41.82;96901.50;10530786;28;20134;-54
2021/12/19 19:49:30;;;;;;;0.38;0.38;;;;;;;20.37;41.75;96901.94;10531001;28;20040;-54
2021/12/19 19:54:50;;;;;;;0.30;0.30;;;;;;;20.40;41.61;96914.78;10530671;28;20052;-52
2021/12/19 20:00:11;;;;;;;0.47;0.38;;;;;;;20.43;41.64;96907.97;10530151;28;20102;-53
2021/12/19 20:05:40;;;;;;;0.30;0.30;;;;;;;20.47;41.49;96908.88;10530751;28;20059;-54
2021/12/19 20:10:59;;;;;;;0.22;0.22;;;;;;;20.50;41.53;96900.09;10540165;28;20040;-53
2021/12/19 20:16:19;;;;;;;0.30;0.30;;;;;;;20.54;41.42;96895.63;10530365;28;20052;-53
2021/12/19 20:21:40;;;;;;;0.40;0.40;;;;;;;20.56;41.40;96904.19;10530007;28;20040;-54
2021/12/19 20:27:02;;;;;;;0.28;0.28;;;;;;;20.60;41.28;96894.34;10529766;28;20525;-51
2021/12/19 20:32:22;;;;;;;0.30;0.30;;;;;;;20.63;41.25;96893.69;10530279;28;20099;-54
2021/12/19 20:37:41;;;;;;;1.50;0.75;;;;;;;20.58;35.77;96904.69;10507435;28;20057;-54
2021/12/19 20:43:01;;;;;;;1.52;0.70;;;;;;;20.47;35.16;96889.94;10495549;28;20557;-53
2021/12/19 20:48:20;;;;;;;0.60;0.60;;;;;;;20.55;38.43;96894.50;10519804;28;20185;-54
2021/12/19 20:53:41;;;;;;;0.80;0.50;;;;;;;20.64;38.80;96884.44;10529496;28;20052;-54
2021/12/19 20:59:01;;;;;;;1.77;0.70;;;;;;;20.69;39.42;96886.94;10532788;28;20055;-54
2021/12/19 21:04:20;;;;;;;2.30;0.75;;;;;;;20.71;40.18;96900.94;10539339;28;20054;-52
2021/12/19 21:09:40;;;;;;;1.25;0.55;;;;;;;20.73;40.66;96896.00;10521551;28;20106;-54
2021/12/19 21:15:24;;;;;;;3.03;0.93;;;;;;;20.77;41.08;96922.41;10514465;28;20040;-53
2021/12/19 21:20:42;;;;;;;5.10;0.98;;;;;;;20.77;41.31;96914.31;10514854;28;20048;-54
2021/12/19 21:26:02;;;;;;;2.15;0.77;;;;;;;20.81;41.53;96915.22;10521857;28;20059;-52
2021/12/19 21:31:24;;;;;;;1.90;0.85;;;;;;;20.82;41.16;96920.31;10551859;28;20040;-54
2021/12/19 21:42:23;;;;;;;;;;;;;;;20.81;41.52;96917.94;10549810;28;20397;-52
2021/12/19 21:47:43;;;;;;;2.65;0.70;;;;;;;20.81;41.39;96926.06;10520636;28;19924;-52
2021/12/19 21:53:04;;;;;;;1.60;0.70;;;;;;;20.81;41.36;96926.84;10541407;28;20032;-53
2021/12/19 21:58:23;;;;;;;1.38;0.80;;;;;;;20.82;41.47;96933.84;10527741;28;20135;-53
2021/12/19 22:03:44;;;;;;;2.42;0.75;;;;;;;20.82;41.47;96922.25;10528168;28;20385;-53
2021/12/19 22:09:05;;;;;;;2.40;0.80;;;;;;;20.82;41.54;96935.78;10532044;28;20047;-53
2021/12/19 22:20:03;;;;;;;1.13;0.63;;;;;;;20.81;41.71;96937.66;10518257;28;20471;-54
2021/12/19 22:25:24;;;;;;;2.88;0.95;;;;;;;20.84;41.71;96942.44;10526946;28;20056;-54
2021/12/19 22:30:47;;;;;;;1.48;0.75;;;;;;;20.86;41.69;96944.81;10521154;28;20573;-51
2021/12/19 22:36:07;;;;;;;1.70;0.60;;;;;;;20.84;41.85;96934.31;10538070;28;20040;-54
2021/12/19 22:41:27;;;;;;;2.08;0.70;;;;;;;20.85;41.91;96951.34;10515042;28;20044;-53
2021/12/19 22:46:47;;;;;;;1.13;0.90;;;;;;;20.83;41.86;96957.09;10498042;28;20048;-53
2021/12/19 22:52:09;;;;;;;1.92;0.93;;;;;;;20.83;42.04;96950.88;10542692;28;20058;-53
2021/12/19 22:57:28;;;;;;;1.95;0.88;;;;;;;20.81;42.06;96943.09;10502001;28;20063;-54
2021/12/19 23:02:49;;;;;;;1.58;0.70;;;;;;;20.80;42.09;96948.84;10499028;28;20048;-53
2021/12/19 23:08:09;;;;;;;2.55;0.70;;;;;;;20.80;42.18;96943.44;10528972;28;20052;-53
2021/12/19 23:13:31;;;;;;;2.65;1.00;;;;;;;20.78;42.17;96940.25;10492403;28;20079;-54
2021/12/19 23:18:53;;;;;;;2.55;0.95;;;;;;;20.76;42.19;96946.00;10512715;28;20675;-54
2021/12/19 23:24:13;;;;;;;3.00;0.85;;;;;;;20.77;42.26;96960.31;10529777;28;20074;-54
2021/12/19 23:29:32;;;;;;;3.03;0.80;;;;;;;20.76;42.23;96966.84;10518090;28;20044;-54
2021/12/19 23:34:52;;;;;;;2.15;0.85;;;;;;;20.73;42.34;96963.69;10516951;28;20051;-54
2021/12/19 23:45:57;;;;;;;1.75;0.70;;;;;;;20.72;42.40;96981.06;10492075;28;20044;-54
2021/12/19 23:51:16;;;;;;;1.25;0.70;;;;;;;20.70;42.45;96968.97;10514742;28;20488;-53
2021/12/19 23:56:36;;;;;;;2.05;0.77;;;;;;;20.69;42.52;96976.28;10522659;28;20075;-54
